Time;durP1;ratioP1;P1;durP2;ratioP2;P2;SDS_P1;SDS_P2;PMS_P1;PMS_P2;Temp;Humidity;BMP_temperature;BMP_pressure;BME280_temperature;BME280_humidity;BME280_pressure;Samples;Min_cycle;Max_cycle;Signal;HPM_P1;HPM_P2
2023/04/06 00:01:42;;;;;;;12.15;7.43;;;;;;;;;;4922001;28;20043;-74
2023/04/06 00:04:08;;;;;;;10.27;8.10;;;;;;;;;;4905267;28;20051;-74
2023/04/06 00:06:34;;;;;;;15.48;8.00;;;;;;;;;;4901707;28;20069;-75
2023/04/06 00:09:01;;;;;;;10.57;8.45;;;;;;;;;;4885564;28;20214;-75
2023/04/06 00:11:27;;;;;;;11.23;8.25;;;;;;;;;;4901329;28;20476;-74
2023/04/06 00:13:53;;;;;;;9.50;7.53;;;;;;;;;;4921642;28;20048;-74
2023/04/06 00:16:20;;;;;;;16.88;8.18;;;;;;;;;;4886146;28;20062;-74
2023/04/06 00:18:46;;;;;;;14.75;8.60;;;;;;;;;;4918900;28;20038;-74
2023/04/06 00:21:13;;;;;;;12.00;8.20;;;;;;;;;;4902278;29;20047;-74
2023/04/06 00:23:40;;;;;;;12.13;8.25;;;;;;;;;;4888560;28;20042;-75
2023/04/06 00:26:06;;;;;;;16.63;9.07;;;;;;;;;;4907058;29;20961;-74
2023/04/06 00:28:33;;;;;;;13.50;8.43;;;;;;;;;;4909711;28;20054;-74
2023/04/06 00:30:59;;;;;;;16.27;8.68;;;;;;;;;;4909920;29;20042;-74
2023/04/06 00:33:25;;;;;;;15.80;9.10;;;;;;;;;;4921812;28;20066;-75
2023/04/06 00:35:51;;;;;;;12.75;8.70;;;;;;;;;;4920114;28;20055;-75
2023/04/06 00:38:18;;;;;;;13.98;9.02;;;;;;;;;;4904067;28;20047;-75
2023/04/06 00:40:44;;;;;;;10.48;8.90;;;;;;;;;;4900928;28;20047;-74
2023/04/06 00:43:11;;;;;;;12.88;8.63;;;;;;;;;;4899999;29;20103;-74
2023/04/06 00:45:39;;;;;;;10.95;8.27;;;;;;;;;;4902919;28;20139;-75
2023/04/06 00:48:05;;;;;;;12.30;9.13;;;;;;;;;;4905270;29;20096;-75
2023/04/06 00:50:32;;;;;;;12.95;8.25;;;;;;;;;;4920075;28;20114;-74
2023/04/06 00:52:59;;;;;;;11.00;8.40;;;;;;;;;;4906247;29;20085;-74
2023/04/06 00:55:26;;;;;;;13.75;8.43;;;;;;;;;;4903515;28;20058;-75
2023/04/06 00:57:52;;;;;;;12.55;8.38;;;;;;;;;;4905716;28;20039;-75
2023/04/06 01:00:18;;;;;;;17.88;9.02;;;;;;;;;;4901844;28;20059;-74
2023/04/06 01:02:46;;;;;;;11.88;8.85;;;;;;;;;;4907743;28;20841;-75
2023/04/06 01:05:12;;;;;;;11.15;8.50;;;;;;;;;;4914895;28;20043;-75
2023/04/06 01:07:38;;;;;;;10.52;8.18;;;;;;;;;;4895567;28;20059;-75
2023/04/06 01:10:04;;;;;;;12.43;8.40;;;;;;;;;;4893005;28;20181;-75
2023/04/06 01:12:30;;;;;;;10.30;7.70;;;;;;;;;;4889734;28;20051;-74
2023/04/06 01:14:56;;;;;;;13.07;9.07;;;;;;;;;;4891339;28;20597;-75
2023/04/06 01:17:23;;;;;;;10.02;8.30;;;;;;;;;;4875126;28;20137;-72
2023/04/06 01:19:53;;;;;;;13.50;8.32;;;;;;;;;;4917505;28;20055;-74
2023/04/06 01:22:20;;;;;;;14.40;9.23;;;;;;;;;;4892255;28;20055;-74
2023/04/06 01:24:46;;;;;;;11.77;8.75;;;;;;;;;;4893779;28;20051;-74
2023/04/06 01:27:13;;;;;;;12.25;8.65;;;;;;;;;;4894042;28;20051;-74
2023/04/06 01:29:41;;;;;;;9.77;7.72;;;;;;;;;;4894699;28;20047;-74
2023/04/06 01:32:07;;;;;;;13.45;8.73;;;;;;;;;;4902183;28;20158;-74
2023/04/06 01:34:33;;;;;;;12.30;8.30;;;;;;;;;;4908015;28;20085;-75
2023/04/06 01:37:00;;;;;;;14.20;9.00;;;;;;;;;;4901697;28;20050;-74
2023/04/06 01:39:26;;;;;;;14.55;8.57;;;;;;;;;;4884058;28;22136;-74
2023/04/06 01:41:52;;;;;;;11.88;8.73;;;;;;;;;;4894258;28;20051;-74
2023/04/06 01:44:18;;;;;;;14.13;8.63;;;;;;;;;;4901974;28;20054;-74
2023/04/06 01:46:45;;;;;;;11.60;8.93;;;;;;;;;;4908632;28;20987;-75
2023/04/06 01:49:12;;;;;;;13.50;9.30;;;;;;;;;;4907954;28;20763;-74
2023/04/06 01:51:38;;;;;;;13.88;8.65;;;;;;;;;;4897481;28;20134;-75
2023/04/06 01:54:04;;;;;;;10.98;8.27;;;;;;;;;;4885529;28;20054;-75
2023/04/06 01:56:30;;;;;;;13.75;8.70;;;;;;;;;;4904133;28;20048;-75
2023/04/06 01:58:56;;;;;;;12.07;8.75;;;;;;;;;;4892002;29;21169;-75
2023/04/06 02:01:22;;;;;;;12.02;8.73;;;;;;;;;;4888734;28;20701;-75
2023/04/06 02:03:49;;;;;;;13.63;9.38;;;;;;;;;;4890985;29;20054;-74
2023/04/06 02:06:15;;;;;;;11.68;8.38;;;;;;;;;;4910384;28;20169;-74
2023/04/06 02:08:41;;;;;;;12.57;8.55;;;;;;;;;;4889840;28;20050;-75
2023/04/06 02:11:07;;;;;;;12.88;8.50;;;;;;;;;;4913863;29;20126;-75
2023/04/06 02:13:33;;;;;;;12.35;8.65;;;;;;;;;;4917760;28;20051;-74
2023/04/06 02:15:59;;;;;;;14.05;8.82;;;;;;;;;;4929154;28;20047;-74
2023/04/06 02:18:26;;;;;;;13.27;8.50;;;;;;;;;;4907705;28;20165;-74
2023/04/06 02:20:52;;;;;;;11.88;8.73;;;;;;;;;;4906229;29;20051;-74
2023/04/06 02:23:18;;;;;;;14.77;9.23;;;;;;;;;;4904605;28;20849;-74
2023/04/06 02:25:44;;;;;;;14.48;9.15;;;;;;;;;;4905821;29;21991;-74
2023/04/06 02:28:10;;;;;;;15.52;9.13;;;;;;;;;;4917626;28;20051;-74
2023/04/06 02:30:36;;;;;;;14.35;8.43;;;;;;;;;;4900032;28;20043;-74
2023/04/06 02:33:02;;;;;;;25.30;10.77;;;;;;;;;;4904022;28;20116;-74
2023/04/06 02:35:29;;;;;;;20.50;11.57;;;;;;;;;;4909591;28;20166;-74
2023/04/06 02:37:55;;;;;;;33.22;12.52;;;;;;;;;;4904375;28;20051;-75
2023/04/06 02:40:21;;;;;;;21.63;12.60;;;;;;;;;;4904068;28;20800;-75
2023/04/06 02:42:47;;;;;;;25.00;11.38;;;;;;;;;;4906304;28;20051;-74
2023/04/06 02:45:13;;;;;;;21.45;11.25;;;;;;;;;;4906123;28;20518;-75
2023/04/06 02:47:39;;;;;;;21.27;12.05;;;;;;;;;;4903741;28;20047;-75
2023/04/06 02:50:06;;;;;;;17.80;12.13;;;;;;;;;;4906814;28;20106;-75
2023/04/06 02:52:32;;;;;;;17.08;11.50;;;;;;;;;;4905496;29;20039;-75
2023/04/06 02:54:58;;;;;;;18.92;11.85;;;;;;;;;;4907663;28;20058;-75
2023/04/06 02:57:25;;;;;;;20.17;11.88;;;;;;;;;;4905747;28;20043;-74
2023/04/06 02:59:51;;;;;;;16.52;11.38;;;;;;;;;;4905219;28;20047;-74
2023/04/06 03:02:17;;;;;;;18.92;12.20;;;;;;;;;;4906494;29;20059;-75
2023/04/06 03:04:43;;;;;;;21.55;12.30;;;;;;;;;;4904244;29;20134;-74
2023/04/06 03:07:09;;;;;;;21.15;12.32;;;;;;;;;;4905245;28;20058;-74
2023/04/06 03:09:37;;;;;;;20.33;12.23;;;;;;;;;;4909468;29;20046;-75
2023/04/06 03:12:03;;;;;;;17.58;10.95;;;;;;;;;;4905932;28;20491;-74
2023/04/06 03:14:29;;;;;;;16.20;10.35;;;;;;;;;;4908542;29;20047;-74
2023/04/06 03:16:55;;;;;;;17.45;11.13;;;;;;;;;;4889911;28;20066;-74
2023/04/06 03:19:21;;;;;;;13.05;9.43;;;;;;;;;;4900777;28;20415;-74
2023/04/06 03:21:47;;;;;;;15.18;9.02;;;;;;;;;;4906987;28;20051;-74
2023/04/06 03:24:13;;;;;;;15.02;9.57;;;;;;;;;;4887636;28;20043;-75
2023/04/06 03:26:40;;;;;;;11.00;8.70;;;;;;;;;;4920107;28;20051;-75
2023/04/06 03:29:06;;;;;;;15.77;9.80;;;;;;;;;;4869650;28;20162;-74
2023/04/06 03:31:32;;;;;;;14.05;9.20;;;;;;;;;;4900775;28;20047;-75
2023/04/06 03:33:59;;;;;;;12.88;9.50;;;;;;;;;;4906814;28;20053;-74
2023/04/06 03:36:26;;;;;;;16.00;9.82;;;;;;;;;;4904486;28;20055;-74
2023/04/06 03:38:53;;;;;;;16.25;9.90;;;;;;;;;;4902152;28;20042;-75
2023/04/06 03:41:19;;;;;;;25.38;10.75;;;;;;;;;;4904441;28;20113;-75
2023/04/06 03:43:45;;;;;;;31.88;11.68;;;;;;;;;;4902577;28;20043;-75
2023/04/06 03:46:11;;;;;;;26.70;11.05;;;;;;;;;;4888800;28;20047;-75
2023/04/06 03:48:38;;;;;;;27.58;11.00;;;;;;;;;;4907159;28;20193;-75
2023/04/06 03:51:04;;;;;;;27.48;10.43;;;;;;;;;;4892609;29;20209;-74
2023/04/06 03:53:30;;;;;;;14.52;9.85;;;;;;;;;;4923493;28;20047;-75
2023/04/06 03:55:56;;;;;;;22.85;10.70;;;;;;;;;;4890995;28;20043;-75
2023/04/06 03:58:22;;;;;;;14.50;10.20;;;;;;;;;;4913816;28;20069;-75
2023/04/06 04:00:48;;;;;;;20.08;11.05;;;;;;;;;;4898563;28;20047;-75
2023/04/06 04:03:14;;;;;;;16.30;9.32;;;;;;;;;;4902900;29;20043;-75
2023/04/06 04:05:40;;;;;;;14.70;10.05;;;;;;;;;;4905770;28;20054;-75
2023/04/06 04:08:06;;;;;;;21.77;10.82;;;;;;;;;;4923408;28;20039;-75
2023/04/06 04:10:33;;;;;;;18.15;11.05;;;;;;;;;;4907001;28;21713;-75
2023/04/06 04:12:59;;;;;;;19.63;10.82;;;;;;;;;;4903413;28;21972;-75
2023/04/06 04:15:25;;;;;;;20.77;11.88;;;;;;;;;;4889690;28;20085;-74
2023/04/06 04:17:51;;;;;;;21.48;13.43;;;;;;;;;;4912454;28;20094;-73
2023/04/06 04:20:17;;;;;;;21.48;12.00;;;;;;;;;;4907794;28;20051;-74
2023/04/06 04:22:43;;;;;;;16.48;11.68;;;;;;;;;;4891881;29;22640;-74
2023/04/06 04:25:09;;;;;;;23.30;11.63;;;;;;;;;;4904990;28;20644;-74
2023/04/06 04:27:35;;;;;;;23.95;13.30;;;;;;;;;;4905818;28;20102;-75
2023/04/06 04:30:02;;;;;;;25.92;15.73;;;;;;;;;;4905051;28;20043;-75
2023/04/06 04:32:28;;;;;;;28.58;15.52;;;;;;;;;;4904208;28;20645;-74
2023/04/06 04:34:54;;;;;;;32.95;14.65;;;;;;;;;;4907178;29;20058;-74
2023/04/06 04:37:20;;;;;;;22.75;14.63;;;;;;;;;;4906656;29;20055;-74
2023/04/06 04:39:46;;;;;;;22.92;14.18;;;;;;;;;;4897854;28;20121;-75
2023/04/06 04:42:12;;;;;;;22.38;13.85;;;;;;;;;;4886438;28;20047;-75
2023/04/06 04:44:39;;;;;;;24.25;14.18;;;;;;;;;;4904208;28;22059;-75
2023/04/06 04:47:05;;;;;;;27.33;14.55;;;;;;;;;;4898566;28;20310;-75
2023/04/06 04:49:31;;;;;;;24.77;13.57;;;;;;;;;;4885559;29;20186;-75
2023/04/06 04:51:57;;;;;;;27.42;14.52;;;;;;;;;;4898708;28;20035;-75
2023/04/06 04:54:23;;;;;;;22.23;13.35;;;;;;;;;;4901038;28;21924;-74
2023/04/06 04:56:50;;;;;;;36.55;13.07;;;;;;;;;;4895311;28;20058;-75
2023/04/06 04:59:16;;;;;;;30.38;14.77;;;;;;;;;;4898935;28;20126;-73
2023/04/06 05:01:42;;;;;;;25.30;13.00;;;;;;;;;;4902303;28;20083;-75
2023/04/06 05:04:08;;;;;;;19.08;14.05;;;;;;;;;;4920845;28;20475;-75
2023/04/06 05:06:34;;;;;;;19.02;13.57;;;;;;;;;;4904619;28;20051;-75
2023/04/06 05:09:00;;;;;;;19.77;13.32;;;;;;;;;;4903417;28;20451;-75
2023/04/06 05:11:26;;;;;;;20.90;14.23;;;;;;;;;;4897494;28;20054;-74
2023/04/06 05:13:52;;;;;;;24.35;15.73;;;;;;;;;;4885239;28;20053;-74
2023/04/06 05:16:19;;;;;;;21.67;14.55;;;;;;;;;;4882356;28;20050;-74
2023/04/06 05:18:45;;;;;;;25.02;15.85;;;;;;;;;;4886107;28;20050;-74
2023/04/06 05:21:11;;;;;;;22.75;14.95;;;;;;;;;;4902233;28;20047;-74
2023/04/06 05:23:37;;;;;;;24.52;15.07;;;;;;;;;;4902188;28;20054;-74
2023/04/06 05:26:04;;;;;;;26.98;14.00;;;;;;;;;;4896779;28;20617;-75
2023/04/06 05:28:30;;;;;;;26.98;15.48;;;;;;;;;;4900072;28;20051;-75
2023/04/06 05:30:56;;;;;;;26.92;15.00;;;;;;;;;;4901895;28;20138;-75
2023/04/06 05:33:23;;;;;;;24.40;14.43;;;;;;;;;;4902661;29;20724;-75
2023/04/06 05:35:49;;;;;;;22.88;13.38;;;;;;;;;;4902466;28;20066;-74
2023/04/06 05:38:15;;;;;;;20.95;12.73;;;;;;;;;;4909112;28;20078;-75
2023/04/06 05:40:42;;;;;;;23.15;13.20;;;;;;;;;;4890835;28;20142;-75
2023/04/06 05:43:08;;;;;;;21.55;12.13;;;;;;;;;;4901955;28;20807;-76
2023/04/06 05:45:34;;;;;;;20.55;12.95;;;;;;;;;;4902300;28;20051;-74
2023/04/06 05:48:01;;;;;;;19.05;11.95;;;;;;;;;;4903071;28;20067;-75
2023/04/06 05:50:28;;;;;;;19.58;12.18;;;;;;;;;;4903070;28;20467;-74
2023/04/06 05:52:54;;;;;;;19.40;11.50;;;;;;;;;;4903932;28;20118;-74
2023/04/06 05:55:20;;;;;;;15.90;11.88;;;;;;;;;;4902641;28;20039;-75
2023/04/06 05:57:46;;;;;;;18.35;12.73;;;;;;;;;;4887150;28;20047;-76
2023/04/06 06:00:13;;;;;;;17.67;12.55;;;;;;;;;;4890123;29;20451;-75
2023/04/06 06:02:39;;;;;;;19.35;12.95;;;;;;;;;;4903349;28;20047;-76
2023/04/06 06:05:05;;;;;;;18.92;13.00;;;;;;;;;;4905328;28;20480;-75
2023/04/06 06:07:32;;;;;;;26.75;12.85;;;;;;;;;;4904480;28;20050;-75
2023/04/06 06:09:58;;;;;;;21.58;13.07;;;;;;;;;;4908762;28;20499;-75
2023/04/06 06:12:24;;;;;;;21.67;13.15;;;;;;;;;;4904990;28;20061;-75
2023/04/06 06:14:50;;;;;;;22.65;13.50;;;;;;;;;;4894012;29;20047;-75
2023/04/06 06:17:17;;;;;;;26.20;12.35;;;;;;;;;;4905398;28;20043;-75
2023/04/06 06:19:43;;;;;;;27.08;12.98;;;;;;;;;;4903866;28;20637;-74
2023/04/06 06:22:09;;;;;;;19.67;12.48;;;;;;;;;;4903435;28;20054;-75
2023/04/06 06:24:35;;;;;;;19.75;13.15;;;;;;;;;;4888138;28;20074;-75
2023/04/06 06:27:01;;;;;;;19.83;12.40;;;;;;;;;;4905128;28;20078;-75
2023/04/06 06:29:27;;;;;;;19.77;12.00;;;;;;;;;;4900679;28;20054;-75
2023/04/06 06:31:53;;;;;;;18.92;11.63;;;;;;;;;;4899288;28;20069;-75
2023/04/06 06:34:20;;;;;;;16.27;11.27;;;;;;;;;;4904444;28;20043;-75
2023/04/06 06:36:46;;;;;;;17.33;10.73;;;;;;;;;;4902307;28;20109;-75
2023/04/06 06:39:12;;;;;;;15.88;11.07;;;;;;;;;;4903424;28;20051;-74
2023/04/06 06:41:38;;;;;;;19.58;10.70;;;;;;;;;;4905561;28;20495;-74
2023/04/06 06:44:05;;;;;;;18.92;10.23;;;;;;;;;;4905008;28;20051;-74
2023/04/06 06:46:31;;;;;;;17.65;11.23;;;;;;;;;;4904050;28;20132;-74
2023/04/06 06:48:57;;;;;;;19.45;10.80;;;;;;;;;;4907913;28;20043;-75
2023/04/06 06:51:24;;;;;;;16.48;11.18;;;;;;;;;;4909998;28;20503;-74
2023/04/06 06:53:50;;;;;;;14.02;9.57;;;;;;;;;;4909409;28;20089;-74
2023/04/06 06:56:16;;;;;;;14.95;9.32;;;;;;;;;;4889223;28;20090;-75
2023/04/06 06:58:42;;;;;;;13.10;9.77;;;;;;;;;;4888429;28;20134;-75
2023/04/06 07:01:08;;;;;;;13.52;10.13;;;;;;;;;;4907262;28;20047;-75
2023/04/06 07:03:34;;;;;;;14.77;9.82;;;;;;;;;;4920772;28;20082;-75
2023/04/06 07:06:00;;;;;;;19.77;9.40;;;;;;;;;;4890551;28;20125;-76
2023/04/06 07:08:26;;;;;;;14.00;9.90;;;;;;;;;;4892143;28;20047;-75
2023/04/06 07:10:53;;;;;;;16.48;9.13;;;;;;;;;;4908639;28;20582;-75
2023/04/06 07:13:23;;;;;;;16.33;9.88;;;;;;;;;;4909101;28;24454;-75
2023/04/06 07:15:52;;;;;;;15.23;10.30;;;;;;;;;;4911788;28;20050;-75
2023/04/06 07:18:21;;;;;;;14.90;9.63;;;;;;;;;;4906023;28;20842;-74
2023/04/06 07:20:47;;;;;;;13.68;9.60;;;;;;;;;;4898644;28;20557;-74
2023/04/06 07:23:14;;;;;;;12.63;9.65;;;;;;;;;;4911446;28;20047;-74
2023/04/06 07:25:40;;;;;;;15.50;9.88;;;;;;;;;;4909711;28;20100;-75
2023/04/06 07:28:06;;;;;;;16.35;9.90;;;;;;;;;;4912786;28;20088;-74
2023/04/06 07:30:32;;;;;;;11.82;8.85;;;;;;;;;;4927082;28;20063;-74
2023/04/06 07:32:59;;;;;;;12.57;9.50;;;;;;;;;;4913912;28;20083;-75
2023/04/06 07:35:26;;;;;;;13.70;9.23;;;;;;;;;;4911234;28;20055;-74
2023/04/06 07:37:52;;;;;;;19.50;11.18;;;;;;;;;;4911894;28;20055;-75
2023/04/06 07:40:19;;;;;;;14.80;9.20;;;;;;;;;;4878015;28;20050;-76
2023/04/06 07:42:45;;;;;;;12.45;9.02;;;;;;;;;;4911871;29;20058;-75
2023/04/06 07:45:12;;;;;;;17.67;9.32;;;;;;;;;;4905546;28;20047;-75
2023/04/06 07:47:38;;;;;;;16.15;9.43;;;;;;;;;;4908517;28;20046;-75
2023/04/06 07:50:05;;;;;;;11.57;9.20;;;;;;;;;;4908818;28;20503;-74
2023/04/06 07:52:31;;;;;;;14.82;9.23;;;;;;;;;;4895312;28;20039;-73
2023/04/06 07:54:58;;;;;;;15.95;9.10;;;;;;;;;;4907311;28;20054;-75
2023/04/06 07:57:24;;;;;;;11.85;9.30;;;;;;;;;;4894018;28;20040;-74
2023/04/06 07:59:50;;;;;;;15.25;9.38;;;;;;;;;;4930247;28;20395;-75
2023/04/06 08:02:16;;;;;;;13.98;9.05;;;;;;;;;;4910666;28;20046;-75
2023/04/06 08:04:43;;;;;;;11.25;9.63;;;;;;;;;;4892647;28;20134;-75
2023/04/06 08:07:09;;;;;;;10.98;8.80;;;;;;;;;;4913110;28;20054;-75
2023/04/06 08:09:35;;;;;;;15.23;9.05;;;;;;;;;;4923710;28;20617;-75
2023/04/06 08:12:01;;;;;;;15.57;9.27;;;;;;;;;;4922767;28;20054;-75
2023/04/06 08:14:27;;;;;;;17.13;9.25;;;;;;;;;;4926339;28;20939;-74
2023/04/06 08:16:53;;;;;;;20.25;8.93;;;;;;;;;;4890669;28;20047;-74
2023/04/06 08:19:19;;;;;;;11.18;8.80;;;;;;;;;;4910904;29;20549;-74
2023/04/06 08:21:46;;;;;;;11.23;8.18;;;;;;;;;;4906928;28;20377;-73
2023/04/06 08:24:13;;;;;;;14.95;9.30;;;;;;;;;;4910488;28;20051;-74
2023/04/06 08:26:39;;;;;;;16.95;9.02;;;;;;;;;;4911362;28;20061;-73
2023/04/06 08:29:07;;;;;;;13.77;8.98;;;;;;;;;;4912490;28;20691;-74
2023/04/06 08:31:34;;;;;;;12.35;9.75;;;;;;;;;;4912272;28;20158;-74
2023/04/06 08:34:00;;;;;;;11.90;9.55;;;;;;;;;;4906689;28;20051;-74
2023/04/06 08:36:26;;;;;;;15.05;9.00;;;;;;;;;;4893439;28;20405;-74
2023/04/06 08:38:53;;;;;;;14.88;8.85;;;;;;;;;;4908263;28;20055;-74
2023/04/06 08:41:20;;;;;;;16.30;10.02;;;;;;;;;;4920259;28;20069;-74
2023/04/06 08:43:52;;;;;;;14.25;8.90;;;;;;;;;;4925163;28;20211;-74
2023/04/06 08:46:18;;;;;;;17.45;9.70;;;;;;;;;;4913169;28;20047;-75
2023/04/06 08:48:49;;;;;;;13.68;9.38;;;;;;;;;;4910444;28;20142;-75
2023/04/06 08:51:15;;;;;;;13.80;8.98;;;;;;;;;;4909443;28;21007;-74
2023/04/06 08:53:41;;;;;;;14.35;8.95;;;;;;;;;;4929924;28;20054;-73
2023/04/06 08:56:10;;;;;;;12.40;8.40;;;;;;;;;;4928387;28;20055;-74
2023/04/06 08:58:37;;;;;;;12.98;8.52;;;;;;;;;;4909378;28;20471;-74
2023/04/06 09:01:08;;;;;;;11.63;8.65;;;;;;;;;;4894619;28;20498;-75
2023/04/06 09:03:38;;;;;;;12.30;9.10;;;;;;;;;;4911275;29;20050;-74
2023/04/06 09:06:04;;;;;;;14.32;9.18;;;;;;;;;;4906204;28;20510;-75
2023/04/06 09:08:30;;;;;;;16.80;10.07;;;;;;;;;;4927128;28;20489;-73
2023/04/06 09:10:56;;;;;;;20.58;9.88;;;;;;;;;;4912144;28;20142;-74
2023/04/06 09:13:22;;;;;;;14.07;9.35;;;;;;;;;;4908116;28;20043;-74
2023/04/06 09:15:58;;;;;;;13.52;9.52;;;;;;;;;;4924422;28;20439;-74
2023/04/06 09:18:31;;;;;;;18.20;10.70;;;;;;;;;;4908028;28;20571;-75
2023/04/06 09:21:01;;;;;;;11.40;9.90;;;;;;;;;;4913323;28;20054;-74
2023/04/06 09:23:28;;;;;;;12.13;10.32;;;;;;;;;;4912376;28;20982;-74
2023/04/06 09:26:12;;;;;;;14.48;10.52;;;;;;;;;;4895787;28;20134;-74
2023/04/06 09:28:38;;;;;;;;;;;;;;;;;;4911662;28;20051;-74
2023/04/06 09:31:04;;;;;;;14.15;10.60;;;;;;;;;;4904943;28;19937;-74
2023/04/06 09:33:30;;;;;;;16.85;8.63;;;;;;;;;;4909803;28;20063;-74
2023/04/06 09:35:57;;;;;;;12.88;10.50;;;;;;;;;;4912062;29;20063;-75
2023/04/06 09:38:23;;;;;;;19.52;10.40;;;;;;;;;;4929957;28;20131;-74
2023/04/06 09:40:52;;;;;;;13.95;10.13;;;;;;;;;;4930243;28;20377;-74
2023/04/06 09:43:27;;;;;;;12.20;8.90;;;;;;;;;;4909875;28;20181;-74
2023/04/06 09:45:58;;;;;;;12.07;8.88;;;;;;;;;;4911720;28;20086;-74
2023/04/06 09:48:25;;;;;;;13.23;8.63;;;;;;;;;;4925435;28;20411;-74
2023/04/06 09:50:55;;;;;;;13.25;8.90;;;;;;;;;;4930108;28;20620;-75
2023/04/06 09:53:21;;;;;;;11.48;8.80;;;;;;;;;;4925412;28;20110;-74
2023/04/06 09:55:52;;;;;;;10.82;9.05;;;;;;;;;;4909329;28;20513;-74
2023/04/06 09:58:26;;;;;;;12.90;9.23;;;;;;;;;;4912830;28;20046;-74
2023/04/06 10:01:18;;;;;;;15.27;9.57;;;;;;;;;;4901998;29;20059;-74
2023/04/06 10:03:55;;;;;;;19.17;9.52;;;;;;;;;;4913470;28;20086;-74
2023/04/06 10:06:23;;;;;;;11.88;9.40;;;;;;;;;;4909515;28;20528;-74
2023/04/06 10:08:50;;;;;;;11.93;9.27;;;;;;;;;;4930307;28;20165;-74
2023/04/06 10:11:16;;;;;;;12.57;8.77;;;;;;;;;;4915177;29;20055;-74
2023/04/06 10:13:44;;;;;;;11.63;8.95;;;;;;;;;;4916088;28;20043;-75
2023/04/06 10:16:10;;;;;;;15.55;8.77;;;;;;;;;;4916071;29;21622;-76
2023/04/06 10:18:39;;;;;;;11.65;8.82;;;;;;;;;;4914500;28;20054;-74
2023/04/06 10:21:09;;;;;;;11.85;9.13;;;;;;;;;;4915329;29;20054;-75
2023/04/06 10:23:35;;;;;;;16.25;10.45;;;;;;;;;;4908780;28;20051;-75
2023/04/06 10:26:02;;;;;;;12.98;9.07;;;;;;;;;;4917136;29;20097;-75
2023/04/06 10:28:32;;;;;;;12.50;10.00;;;;;;;;;;4930910;28;20054;-76
2023/04/06 10:30:59;;;;;;;12.57;10.00;;;;;;;;;;4918663;29;20051;-75
2023/04/06 10:33:25;;;;;;;11.93;9.40;;;;;;;;;;4932279;28;20043;-75
2023/04/06 10:35:52;;;;;;;13.05;9.90;;;;;;;;;;4912690;28;20410;-76
2023/04/06 10:38:21;;;;;;;11.95;9.70;;;;;;;;;;4910099;28;20217;-75
2023/04/06 10:40:48;;;;;;;12.95;9.88;;;;;;;;;;4915508;28;20170;-75
2023/04/06 10:43:19;;;;;;;12.40;10.25;;;;;;;;;;4911203;28;20066;-75
2023/04/06 10:45:45;;;;;;;13.85;10.18;;;;;;;;;;4912714;28;20356;-75
2023/04/06 10:48:18;;;;;;;14.38;11.10;;;;;;;;;;4912504;28;20075;-75
2023/04/06 10:50:45;;;;;;;14.27;10.23;;;;;;;;;;4913631;28;20736;-75
2023/04/06 10:53:11;;;;;;;15.95;10.73;;;;;;;;;;4911038;28;20459;-75
2023/04/06 10:55:41;;;;;;;15.50;9.75;;;;;;;;;;4932163;28;20050;-76
2023/04/06 10:58:08;;;;;;;16.77;11.35;;;;;;;;;;4913390;28;20057;-75
2023/04/06 11:00:34;;;;;;;14.88;11.23;;;;;;;;;;4911783;28;20134;-75
2023/04/06 11:03:01;;;;;;;12.95;11.23;;;;;;;;;;4914966;28;20417;-74
2023/04/06 11:05:31;;;;;;;19.25;12.52;;;;;;;;;;4915570;29;20091;-75
2023/04/06 11:07:57;;;;;;;15.73;11.48;;;;;;;;;;4911650;28;20087;-74
2023/04/06 11:10:23;;;;;;;16.58;11.98;;;;;;;;;;4913132;28;20062;-75
2023/04/06 11:12:55;;;;;;;21.02;13.02;;;;;;;;;;4915475;29;20043;-75
2023/04/06 11:15:22;;;;;;;19.77;13.07;;;;;;;;;;4914541;28;20348;-75
2023/04/06 11:17:49;;;;;;;17.02;12.18;;;;;;;;;;4912349;29;20466;-76
2023/04/06 11:20:15;;;;;;;17.52;12.75;;;;;;;;;;4899633;28;20139;-76
2023/04/06 11:22:51;;;;;;;18.65;12.93;;;;;;;;;;4912188;29;20146;-76
2023/04/06 11:25:17;;;;;;;20.73;13.98;;;;;;;;;;4913303;29;20050;-75
2023/04/06 11:27:43;;;;;;;20.38;14.20;;;;;;;;;;4912201;28;20061;-76
2023/04/06 11:30:10;;;;;;;20.45;14.40;;;;;;;;;;4911302;28;20062;-74
2023/04/06 11:32:46;;;;;;;18.98;14.27;;;;;;;;;;4911978;29;20110;-74
2023/04/06 11:35:24;;;;;;;19.10;13.70;;;;;;;;;;4914560;29;20047;-75
2023/04/06 11:37:51;;;;;;;23.23;14.80;;;;;;;;;;4912413;29;20055;-74
2023/04/06 11:40:24;;;;;;;28.98;13.95;;;;;;;;;;4912401;28;20169;-75
2023/04/06 11:42:54;;;;;;;18.70;14.80;;;;;;;;;;4912987;28;20090;-75
2023/04/06 11:45:20;;;;;;;21.30;14.57;;;;;;;;;;4909734;28;20559;-75
2023/04/06 11:47:56;;;;;;;20.73;15.35;;;;;;;;;;4914176;28;20656;-75
2023/04/06 11:50:25;;;;;;;20.05;15.75;;;;;;;;;;4905264;29;20126;-76
2023/04/06 11:53:01;;;;;;;20.98;15.98;;;;;;;;;;4909738;28;20043;-75
2023/04/06 11:55:27;;;;;;;24.40;16.70;;;;;;;;;;4909618;28;20047;-75
2023/04/06 11:57:53;;;;;;;21.80;17.05;;;;;;;;;;4907877;28;20444;-75
2023/04/06 12:00:20;;;;;;;22.10;16.02;;;;;;;;;;4909180;28;20085;-76
2023/04/06 12:02:47;;;;;;;22.70;16.50;;;;;;;;;;4908666;28;20047;-76
2023/04/06 12:05:13;;;;;;;21.27;16.98;;;;;;;;;;4895381;29;20085;-76
2023/04/06 12:07:39;;;;;;;21.88;16.67;;;;;;;;;;4907776;28;20058;-76
2023/04/06 12:10:09;;;;;;;20.98;16.25;;;;;;;;;;4907027;28;20055;-74
2023/04/06 12:12:35;;;;;;;23.20;15.25;;;;;;;;;;4895067;28;20043;-76
2023/04/06 12:15:01;;;;;;;24.20;16.48;;;;;;;;;;4888864;28;20862;-74
2023/04/06 12:17:28;;;;;;;25.67;16.10;;;;;;;;;;4904465;28;20703;-75
2023/04/06 12:19:54;;;;;;;24.60;17.42;;;;;;;;;;4906199;29;20414;-74
2023/04/06 12:22:20;;;;;;;19.92;15.85;;;;;;;;;;4892462;28;20562;-75
2023/04/06 12:24:46;;;;;;;22.77;16.92;;;;;;;;;;4925474;28;21591;-74
2023/04/06 12:27:12;;;;;;;26.08;16.65;;;;;;;;;;4906898;28;20173;-74
2023/04/06 12:29:38;;;;;;;22.90;17.15;;;;;;;;;;4887819;28;20054;-74
2023/04/06 12:32:05;;;;;;;26.48;17.95;;;;;;;;;;4909781;28;20047;-73
2023/04/06 12:34:32;;;;;;;25.85;17.25;;;;;;;;;;4908220;29;20056;-74
2023/04/06 12:36:58;;;;;;;25.80;18.52;;;;;;;;;;4909237;28;20055;-74
2023/04/06 12:39:25;;;;;;;23.98;18.98;;;;;;;;;;4907122;28;22324;-74
2023/04/06 12:41:51;;;;;;;29.10;20.08;;;;;;;;;;4892208;28;20058;-75
2023/04/06 12:44:17;;;;;;;28.13;20.00;;;;;;;;;;4909455;28;20182;-75
2023/04/06 12:46:45;;;;;;;27.83;20.08;;;;;;;;;;4905090;28;20055;-74
2023/04/06 12:49:11;;;;;;;25.58;20.08;;;;;;;;;;4911507;28;20051;-74
2023/04/06 12:51:37;;;;;;;25.65;19.27;;;;;;;;;;4904849;28;20047;-75
2023/04/06 12:54:03;;;;;;;29.27;20.35;;;;;;;;;;4906947;29;20110;-75
2023/04/06 12:56:30;;;;;;;29.58;19.92;;;;;;;;;;4906030;28;20521;-74
2023/04/06 12:58:56;;;;;;;27.48;19.65;;;;;;;;;;4907551;28;22215;-75
2023/04/06 13:01:23;;;;;;;30.45;20.27;;;;;;;;;;4906960;28;20054;-75
2023/04/06 13:03:49;;;;;;;26.90;21.45;;;;;;;;;;4906098;28;20124;-75
2023/04/06 13:06:15;;;;;;;27.35;21.52;;;;;;;;;;4926454;28;20047;-75
2023/04/06 13:08:42;;;;;;;27.02;20.13;;;;;;;;;;4926196;28;20047;-75
2023/04/06 13:11:08;;;;;;;28.40;20.92;;;;;;;;;;4907479;29;20522;-75
2023/04/06 13:13:35;;;;;;;31.95;21.58;;;;;;;;;;4908476;28;20047;-74
2023/04/06 13:16:03;;;;;;;25.02;19.38;;;;;;;;;;4921055;28;20043;-74
2023/04/06 13:18:30;;;;;;;25.75;19.80;;;;;;;;;;4892083;28;20053;-75
2023/04/06 13:20:56;;;;;;;28.17;20.33;;;;;;;;;;4926040;28;20051;-75
2023/04/06 13:23:26;;;;;;;30.52;20.30;;;;;;;;;;4924723;28;20133;-74
2023/04/06 13:26:00;;;;;;;27.23;19.55;;;;;;;;;;4909010;29;20043;-75
2023/04/06 13:28:26;;;;;;;27.90;19.98;;;;;;;;;;4908156;28;20082;-75
2023/04/06 13:30:52;;;;;;;30.10;20.35;;;;;;;;;;4928230;28;20150;-75
2023/04/06 13:33:18;;;;;;;28.00;20.83;;;;;;;;;;4898735;28;20051;-75
2023/04/06 13:35:47;;;;;;;25.60;21.13;;;;;;;;;;4882341;29;20039;-74
2023/04/06 13:38:14;;;;;;;29.10;21.20;;;;;;;;;;4897657;29;20063;-74
2023/04/06 13:40:40;;;;;;;35.22;20.77;;;;;;;;;;4911103;29;20094;-74
2023/04/06 13:43:07;;;;;;;29.60;20.60;;;;;;;;;;4910135;29;20463;-74
2023/04/06 13:45:33;;;;;;;30.08;21.13;;;;;;;;;;4874878;29;20079;-74
2023/04/06 13:47:59;;;;;;;26.92;20.92;;;;;;;;;;4892563;29;20043;-75
2023/04/06 13:50:29;;;;;;;28.80;21.23;;;;;;;;;;4880350;29;21343;-75
2023/04/06 13:52:56;;;;;;;28.98;20.17;;;;;;;;;;4902691;29;20054;-74
2023/04/06 13:55:24;;;;;;;29.40;22.02;;;;;;;;;;4899036;29;20054;-74
2023/04/06 13:57:50;;;;;;;33.03;20.85;;;;;;;;;;4891180;29;20052;-75
2023/04/06 14:00:17;;;;;;;26.60;20.25;;;;;;;;;;4908020;29;20553;-75
2023/04/06 14:02:43;;;;;;;27.08;20.45;;;;;;;;;;4873891;29;20408;-75
2023/04/06 14:05:09;;;;;;;27.08;21.10;;;;;;;;;;4888749;29;20059;-75
2023/04/06 14:07:35;;;;;;;25.50;20.95;;;;;;;;;;4890124;29;21685;-75
2023/04/06 14:10:02;;;;;;;27.58;21.48;;;;;;;;;;4870874;29;20435;-75
2023/04/06 14:12:28;;;;;;;28.55;22.10;;;;;;;;;;4906486;29;20612;-75
2023/04/06 14:14:55;;;;;;;28.05;21.33;;;;;;;;;;4872673;29;20055;-74
2023/04/06 14:17:21;;;;;;;25.40;21.52;;;;;;;;;;4887587;29;20051;-74
2023/04/06 14:19:47;;;;;;;26.85;21.40;;;;;;;;;;4890601;29;20055;-74
2023/04/06 14:22:13;;;;;;;29.55;22.67;;;;;;;;;;4891972;29;20075;-72